»·PEaware :: N710DF KBLH-L57

N710DF :: KBLH-L57

FLIGHT INFORMATION

Flight Status: Arrived
Operator: Privately registered:
United States
More flights under this callsign
Pilot: Andrew P. (3132)
Aircraft: Unknown
(B60T)
More flights by this aircraft type
Origin: KBLH Blythe
United States
Destination: L57 Hidden Hills
United States
More flights between these airports :: More routes between these airports
Route: +PKE V442 CLIPP GFS V135 HIDEN
File this flight plan on PilotEdge
Remarks: L57 Is uncharted @ Latitude 36°00'23"N (36.006356) Longitude 115°51'47"W (-115.863071)
Altitude:
(Current/Filed)
16,000ft
Speed:
(Current/Filed)
220kts
Departed: 26-Jul-16 07:47 AM
Arrived: 26-Jul-16 08:54 AM
Distance/Time
Traveled:
171nm/1:06
Distance/Time
To Go:
Arrived

Flight Plot

Page will automatically refresh every two minutes.

Flight plan parsing failed; only flown route is shown


Map Options




Map Legend


Flown Route
Filed Route
Departure Airport
Arrival Airport
Navaid (VOR, NDB)
Fix

Horizontal Profiles

Position Reports

Time Latitude Longitude Heading Altitude Ground
Speed
26-Jul-16 07:40 33.614949 -114.714612 347 400ft 0kts
26-Jul-16 07:41 33.616561 -114.716775 349 400ft 0kts
26-Jul-16 07:42 33.641212 -114.717057 358 1862ft 144kts
26-Jul-16 07:43 33.686504 -114.717424 357 4361ft 181kts
26-Jul-16 07:44 33.729306 -114.717649 358 6034ft 186kts
26-Jul-16 07:45 33.789950 -114.718014 359 8358ft 188kts
26-Jul-16 07:46 33.833369 -114.718289 0 10025ft 188kts
26-Jul-16 07:47 33.884501 -114.716337 10 12022ft 179kts
26-Jul-16 07:48 33.933894 -114.708528 9 14036ft 180kts
26-Jul-16 07:49 33.983819 -114.700687 9 15904ft 190kts
26-Jul-16 07:50 34.043995 -114.691178 9 16004ft 236kts
26-Jul-16 07:51 34.109937 -114.687244 342 16002ft 244kts
26-Jul-16 07:52 34.171268 -114.724763 335 16000ft 248kts
26-Jul-16 07:53 34.207003 -114.788734 253 15519ft 258kts
26-Jul-16 07:54 34.151591 -114.823677 165 15515ft 243kts
26-Jul-16 07:55 34.087826 -114.810644 168 14316ft 220kts
26-Jul-16 07:56 34.024255 -114.797927 168 12843ft 254kts
26-Jul-16 07:57 33.955341 -114.784160 168 11344ft 221kts
26-Jul-16 07:58 33.900319 -114.772891 166 9862ft 192kts
26-Jul-16 07:59 33.838862 -114.755338 166 8030ft 236kts
26-Jul-16 08:00 33.775850 -114.737801 168 6023ft 218kts
26-Jul-16 08:01 33.718601 -114.721971 168 4019ft 200kts
26-Jul-16 08:02 33.667916 -114.717158 180 2343ft 132kts
26-Jul-16 08:03 33.641497 -114.716708 180 1007ft 84kts
26-Jul-16 08:04 33.620845 -114.716738 179 400ft 68kts
26-Jul-16 08:05 33.614240 -114.714992 81 400ft 1kts
26-Jul-16 08:06 33.615463 -114.716758 1 400ft 19kts
26-Jul-16 08:07 33.649399 -114.731045 325 1604ft 180kts
26-Jul-16 08:08 33.695977 -114.757834 334 3537ft 183kts
26-Jul-16 08:09 33.745265 -114.782730 335 4501ft 214kts
26-Jul-16 08:10 33.801495 -114.811096 335 5424ft 201kts
26-Jul-16 08:11 33.847565 -114.834448 336 7888ft 166kts
26-Jul-16 08:12 33.887511 -114.854739 337 10312ft 149kts
26-Jul-16 08:13 33.932582 -114.877581 339 12188ft 195kts
26-Jul-16 08:14 33.984909 -114.904120 339 14010ft 209kts
26-Jul-16 08:15 34.039253 -114.931756 339 15823ft 214kts
26-Jul-16 08:16 34.099000 -114.956746 336 16511ft 247kts
26-Jul-16 08:17 34.162472 -114.993470 337 16502ft 254kts
26-Jul-16 08:18 34.227363 -115.027540 338 16499ft 255kts
26-Jul-16 08:19 34.293082 -115.061329 338 16495ft 257kts
26-Jul-16 08:20 34.358500 -115.094898 338 16510ft 255kts
26-Jul-16 08:21 34.423915 -115.128496 338 16502ft 254kts
26-Jul-16 08:22 34.489650 -115.162309 338 16496ft 257kts
26-Jul-16 08:23 34.555485 -115.196237 338 16501ft 256kts
26-Jul-16 08:24 34.620982 -115.230051 338 16503ft 254kts
26-Jul-16 08:25 34.686706 -115.264032 338 16500ft 256kts
26-Jul-16 08:26 34.752237 -115.297980 338 16507ft 255kts
26-Jul-16 08:27 34.817969 -115.332088 338 16502ft 256kts
26-Jul-16 08:28 34.883610 -115.366210 338 16506ft 255kts
26-Jul-16 08:29 34.949162 -115.400340 338 16506ft 257kts
26-Jul-16 08:30 35.014731 -115.434549 338 16514ft 255kts
26-Jul-16 08:31 35.080191 -115.468755 338 16519ft 255kts
26-Jul-16 08:32 35.146039 -115.503223 338 16519ft 256kts
26-Jul-16 08:33 35.211712 -115.537672 337 16584ft 256kts
26-Jul-16 08:34 35.277555 -115.572250 337 16591ft 257kts
26-Jul-16 08:35 35.343485 -115.606946 337 16595ft 257kts
26-Jul-16 08:36 35.409388 -115.641690 337 16602ft 257kts
26-Jul-16 08:37 35.475032 -115.676366 337 16270ft 250kts
26-Jul-16 08:38 35.525377 -115.702980 337 15035ft 229kts
26-Jul-16 08:39 35.583552 -115.733781 337 13564ft 233kts
26-Jul-16 08:40 35.646887 -115.767396 337 12523ft 237kts
26-Jul-16 08:41 35.708683 -115.800258 336 12502ft 242kts
26-Jul-16 08:42 35.770483 -115.833152 336 11293ft 238kts
26-Jul-16 08:43 35.830758 -115.865302 335 9825ft 238kts
26-Jul-16 08:44 35.889382 -115.896576 335 8081ft 205kts
26-Jul-16 08:45 35.931334 -115.918979 336 6367ft 125kts
26-Jul-16 08:46 35.962897 -115.922233 18 5312ft 157kts
26-Jul-16 08:47 35.987895 -115.896126 62 3934ft 126kts
26-Jul-16 08:48 36.003573 -115.867183 49 2785ft 79kts
26-Jul-16 08:49 36.007556 -115.860848 59 2803ft 0kts
26-Jul-16 08:50 36.004836 -115.865112 228 2799ft 92kts
26-Jul-16 08:51 36.001006 -115.915831 274 4901ft 176kts
26-Jul-16 08:52 35.993986 -115.973952 259 7282ft 166kts
26-Jul-16 08:53 35.985377 -116.038184 259 9766ft 203kts
26-Jul-16 08:54 35.977116 -116.102051 259 12153ft 193kts
26-Jul-16 08:55 35.968514 -116.168552 260 13856ft 211kts
26-Jul-16 08:56 35.958662 -116.244643 260 14494ft 244kts
26-Jul-16 08:57 35.947648 -116.329285 260 14506ft 251kts
26-Jul-16 08:58 35.936375 -116.415207 260 14492ft 254kts
26-Jul-16 08:59 35.925038 -116.501076 259 14503ft 252kts
26-Jul-16 09:00 35.913617 -116.587055 259 14497ft 254kts
26-Jul-16 09:01 35.902139 -116.672990 259 14486ft 253kts
26-Jul-16 09:02 35.890800 -116.757558 259 13822ft 232kts
26-Jul-16 09:03 35.879376 -116.842037 259 12356ft 257kts

Navigation Log

Ident Type
Flight plan parsing failed, navigation log unavailable